createdAt,value
2023-10-31T00:00:52.387Z,8.83
2023-10-31T00:02:25.551Z,8.60
2023-10-31T00:03:57.801Z,9.10
2023-10-31T00:05:30.924Z,8.00
2023-10-31T00:07:03.076Z,8.10
2023-10-31T00:08:36.202Z,8.30
2023-10-31T00:10:10.194Z,7.57
2023-10-31T00:11:44.125Z,7.77
2023-10-31T00:13:16.260Z,8.10
2023-10-31T00:14:49.366Z,9.03
2023-10-31T00:16:23.055Z,8.43
2023-10-31T00:17:56.190Z,8.27
2023-10-31T00:19:28.605Z,8.00
2023-10-31T00:21:01.699Z,7.67
2023-10-31T00:22:33.929Z,7.80
2023-10-31T00:24:07.781Z,8.40
2023-10-31T00:25:40.970Z,8.20
2023-10-31T00:27:13.257Z,8.00
2023-10-31T00:28:46.455Z,7.50
2023-10-31T00:30:18.589Z,7.50
2023-10-31T00:31:53.155Z,7.87
2023-10-31T00:33:26.245Z,7.30
2023-10-31T00:34:58.427Z,7.37
2023-10-31T00:36:31.572Z,7.03
2023-10-31T00:38:03.757Z,7.67
2023-10-31T00:39:36.890Z,7.40
2023-10-31T00:41:09.135Z,7.30
2023-10-31T00:42:43.111Z,7.20
2023-10-31T00:44:15.505Z,6.67
2023-10-31T00:45:48.705Z,7.33
2023-10-31T00:47:22.330Z,8.03
2023-10-31T00:48:56.969Z,8.10
2023-10-31T00:50:31.199Z,7.80
2023-10-31T00:52:03.995Z,7.97
2023-10-31T00:53:37.162Z,8.23
2023-10-31T00:55:10.393Z,8.13
2023-10-31T00:56:43.664Z,8.00
2023-10-31T00:58:15.808Z,8.83
2023-10-31T00:59:49.065Z,8.87
2023-10-31T01:01:21.742Z,9.53
2023-10-31T01:02:56.309Z,8.10
2023-10-31T01:04:28.595Z,8.93
2023-10-31T01:06:02.135Z,8.90
2023-10-31T01:07:35.066Z,8.90
2023-10-31T01:09:08.176Z,8.77
2023-10-31T01:10:40.377Z,8.10
2023-10-31T01:12:13.469Z,8.17
2023-10-31T01:13:45.875Z,8.37
2023-10-31T01:15:19.069Z,8.27
2023-10-31T01:16:51.262Z,7.97
2023-10-31T01:18:25.758Z,8.40
2023-10-31T01:19:57.941Z,8.70
2023-10-31T01:21:31.047Z,9.47
2023-10-31T01:23:03.242Z,9.97
2023-10-31T01:24:37.006Z,8.83
2023-10-31T01:26:09.198Z,9.27
2023-10-31T01:27:43.171Z,9.97
2023-10-31T01:29:15.381Z,10.37
2023-10-31T01:30:48.712Z,9.90
2023-10-31T01:32:22.734Z,9.80
2023-10-31T01:33:57.736Z,10.43
2023-10-31T01:35:29.966Z,10.10
2023-10-31T01:37:03.085Z,9.70
2023-10-31T01:38:35.367Z,10.27
2023-10-31T01:40:10.652Z,10.37
2023-10-31T01:41:44.090Z,10.33
2023-10-31T01:43:30.678Z,10.67
2023-10-31T01:45:03.771Z,11.07
2023-10-31T01:46:35.986Z,10.57
2023-10-31T01:48:09.202Z,11.30
2023-10-31T01:49:43.857Z,10.33
2023-10-31T01:51:17.680Z,11.03
2023-10-31T01:52:51.076Z,11.07
2023-10-31T01:54:23.238Z,11.30
2023-10-31T01:55:58.030Z,10.63
2023-10-31T01:57:30.674Z,11.30
2023-10-31T01:59:04.169Z,11.17
2023-10-31T02:00:36.711Z,11.83
2023-10-31T02:02:10.201Z,11.40
2023-10-31T02:03:43.445Z,10.77
2023-10-31T02:05:18.313Z,11.10
2023-10-31T02:06:50.510Z,11.80
2023-10-31T02:08:27.210Z,11.40
2023-10-31T02:09:59.383Z,11.67
2023-10-31T02:11:32.620Z,11.43
2023-10-31T02:13:12.673Z,11.77
2023-10-31T02:14:45.786Z,11.50
2023-10-31T02:16:17.973Z,11.83
2023-10-31T02:17:51.115Z,12.30
2023-10-31T02:19:23.693Z,12.00
2023-10-31T02:20:58.153Z,11.93
2023-10-31T02:22:31.659Z,13.03
2023-10-31T02:24:05.710Z,12.23
2023-10-31T02:25:37.876Z,12.50
2023-10-31T02:27:11.082Z,11.90
2023-10-31T02:28:43.817Z,12.60
2023-10-31T02:30:17.153Z,12.30
2023-10-31T02:31:49.559Z,12.77
2023-10-31T02:33:23.145Z,12.97
2023-10-31T02:34:55.374Z,13.83
2023-10-31T02:36:28.506Z,13.10
2023-10-31T02:38:02.081Z,13.60
2023-10-31T02:39:35.598Z,13.70
2023-10-31T02:41:07.833Z,14.13
2023-10-31T02:42:41.016Z,14.80
2023-10-31T02:44:13.395Z,13.77
2023-10-31T02:45:46.583Z,14.87
2023-10-31T02:47:18.941Z,14.30
2023-10-31T02:48:52.050Z,14.17
2023-10-31T02:50:24.187Z,14.50
2023-10-31T02:51:57.331Z,14.83
2023-10-31T02:53:30.863Z,14.20
2023-10-31T02:55:04.069Z,14.87
2023-10-31T02:56:36.222Z,14.47
2023-10-31T02:58:10.262Z,14.60
2023-10-31T02:59:42.435Z,16.10
2023-10-31T03:01:15.529Z,15.10
2023-10-31T03:02:47.733Z,15.00
2023-10-31T03:04:20.988Z,15.00
2023-10-31T03:05:53.842Z,15.37
2023-10-31T03:07:27.006Z,14.60
2023-10-31T03:09:00.554Z,15.13
2023-10-31T03:10:34.059Z,15.70
2023-10-31T03:12:06.882Z,15.03
2023-10-31T03:13:40.029Z,16.80
2023-10-31T03:15:12.331Z,15.20
2023-10-31T03:16:45.838Z,16.50
2023-10-31T03:18:19.172Z,16.63
2023-10-31T03:19:51.339Z,17.03
2023-10-31T03:21:25.417Z,17.63
2023-10-31T03:22:57.535Z,17.03
2023-10-31T03:24:32.775Z,17.43
2023-10-31T03:26:05.364Z,16.83
2023-10-31T03:27:38.811Z,17.57
2023-10-31T03:29:11.013Z,17.57
2023-10-31T03:30:46.094Z,18.43
2023-10-31T03:32:18.301Z,19.50
2023-10-31T03:33:52.567Z,18.90
2023-10-31T03:35:24.671Z,20.07
2023-10-31T03:36:57.766Z,19.57
2023-10-31T03:38:30.005Z,20.60
2023-10-31T03:40:05.077Z,20.70
2023-10-31T03:41:37.282Z,20.60
2023-10-31T03:43:10.457Z,21.40
2023-10-31T03:44:42.616Z,22.43
2023-10-31T03:46:15.888Z,21.90
2023-10-31T03:47:48.597Z,20.70
2023-10-31T03:49:23.283Z,20.60
2023-10-31T03:50:55.486Z,21.07
2023-10-31T03:52:28.675Z,21.67
2023-10-31T03:54:01.286Z,21.47
2023-10-31T03:55:35.954Z,20.83
2023-10-31T03:57:08.150Z,20.37
2023-10-31T03:58:45.036Z,20.23
2023-10-31T04:00:17.977Z,18.07
2023-10-31T04:01:52.379Z,18.30
2023-10-31T04:03:24.525Z,17.67
2023-10-31T04:04:57.832Z,16.20
2023-10-31T04:06:30.053Z,15.93
2023-10-31T04:08:03.970Z,16.20
2023-10-31T04:09:36.119Z,16.80
2023-10-31T04:11:10.630Z,16.37
2023-10-31T04:12:43.356Z,15.00
2023-10-31T04:14:16.546Z,14.30
2023-10-31T04:15:49.874Z,14.47
2023-10-31T04:17:22.230Z,13.03
2023-10-31T04:18:55.373Z,14.07
2023-10-31T04:20:27.489Z,13.80
2023-10-31T04:22:00.707Z,11.60
2023-10-31T04:23:32.851Z,11.80
2023-10-31T04:25:07.110Z,11.53
2023-10-31T04:26:41.467Z,9.40
2023-10-31T04:28:15.952Z,9.53
2023-10-31T04:29:48.271Z,8.53
2023-10-31T04:31:31.150Z,8.23
2023-10-31T04:33:12.116Z,7.93
2023-10-31T04:34:45.031Z,8.47
2023-10-31T04:36:18.201Z,7.67
2023-10-31T04:37:50.377Z,7.47
2023-10-31T04:39:23.582Z,7.00
2023-10-31T04:40:55.777Z,4.73
2023-10-31T04:42:30.278Z,4.30
2023-10-31T04:44:02.419Z,4.70
2023-10-31T04:45:35.559Z,4.70
2023-10-31T04:47:08.219Z,4.27
2023-10-31T04:48:41.561Z,3.80
2023-10-31T04:50:14.804Z,3.60
2023-10-31T04:51:47.064Z,2.50
2023-10-31T04:53:20.201Z,2.40
2023-10-31T04:54:52.775Z,2.30
2023-10-31T04:56:25.880Z,2.20
2023-10-31T04:57:59.431Z,1.90
2023-10-31T04:59:32.556Z,2.30
2023-10-31T05:01:08.953Z,1.67
2023-10-31T05:02:42.077Z,1.73
2023-10-31T05:04:14.699Z,1.70
2023-10-31T05:05:47.856Z,1.60
2023-10-31T05:07:21.245Z,1.73
2023-10-31T05:08:53.398Z,2.00
2023-10-31T05:10:27.185Z,1.77
2023-10-31T05:11:59.339Z,2.00
2023-10-31T05:13:33.853Z,1.87
2023-10-31T05:15:07.258Z,1.93
2023-10-31T05:16:44.294Z,1.70
2023-10-31T05:18:16.557Z,1.83
2023-10-31T05:19:50.328Z,1.90
2023-10-31T05:21:22.514Z,2.10
2023-10-31T05:22:55.784Z,2.03
2023-10-31T05:24:27.970Z,2.00
2023-10-31T05:26:01.156Z,1.80
2023-10-31T05:27:35.060Z,1.80
2023-10-31T05:29:09.797Z,1.73
2023-10-31T05:30:42.204Z,1.93
2023-10-31T05:32:15.821Z,1.63
2023-10-31T05:33:48.054Z,1.73
2023-10-31T05:35:21.487Z,1.50
2023-10-31T05:36:54.661Z,1.70
2023-10-31T05:38:26.745Z,1.43
2023-10-31T05:39:59.855Z,1.10
2023-10-31T05:41:34.419Z,1.17
2023-10-31T05:43:07.728Z,1.10
2023-10-31T05:44:41.348Z,1.17
2023-10-31T05:46:15.684Z,1.07
2023-10-31T05:47:47.906Z,1.10
2023-10-31T05:49:21.697Z,1.00
2023-10-31T05:50:53.834Z,1.00
2023-10-31T05:52:30.662Z,0.97
2023-10-31T05:54:03.114Z,1.10
2023-10-31T05:55:36.562Z,1.37
2023-10-31T05:57:08.711Z,1.10
2023-10-31T05:58:42.026Z,0.90
2023-10-31T06:00:16.550Z,1.20
2023-10-31T06:01:51.399Z,0.77
2023-10-31T06:03:23.637Z,1.13
2023-10-31T06:04:56.754Z,1.00
2023-10-31T06:06:28.908Z,0.80
2023-10-31T06:08:02.112Z,0.80
2023-10-31T06:09:35.348Z,0.90
2023-10-31T06:11:09.478Z,0.90
2023-10-31T06:12:41.649Z,1.10
2023-10-31T06:14:15.228Z,0.80
2023-10-31T06:15:48.766Z,0.70
2023-10-31T06:17:21.925Z,0.93
2023-10-31T06:18:54.558Z,0.80
2023-10-31T06:20:28.088Z,0.80
2023-10-31T06:22:00.252Z,0.67
2023-10-31T06:23:33.359Z,0.80
2023-10-31T06:25:07.113Z,0.70
2023-10-31T06:26:40.539Z,0.70
2023-10-31T06:28:13.737Z,0.70
2023-10-31T06:29:56.232Z,0.77
2023-10-31T06:31:42.234Z,0.80
2023-10-31T06:33:14.425Z,0.77
2023-10-31T06:34:47.632Z,0.80
2023-10-31T06:36:19.854Z,0.63
2023-10-31T06:37:54.279Z,0.80
2023-10-31T06:39:26.480Z,0.70
2023-10-31T06:41:00.008Z,0.70
2023-10-31T06:42:32.267Z,0.70
2023-10-31T06:44:05.778Z,0.60
2023-10-31T06:45:37.899Z,0.57
2023-10-31T06:47:12.459Z,0.40
2023-10-31T06:48:45.560Z,0.73
2023-10-31T06:50:20.477Z,0.60
2023-10-31T06:51:53.997Z,0.50
2023-10-31T06:53:26.239Z,0.50
2023-10-31T06:54:59.362Z,0.70
2023-10-31T06:56:31.511Z,0.60
2023-10-31T06:58:04.964Z,0.80
2023-10-31T06:59:37.088Z,0.87
2023-10-31T07:01:10.600Z,0.70
2023-10-31T07:02:44.152Z,0.70
2023-10-31T07:04:17.913Z,0.60
2023-10-31T07:05:50.107Z,0.70
2023-10-31T07:07:23.226Z,0.67
2023-10-31T07:08:56.393Z,0.60
2023-10-31T07:10:28.669Z,0.70
2023-10-31T07:12:01.934Z,0.60
2023-10-31T07:13:35.175Z,0.60
2023-10-31T07:15:08.562Z,0.60
2023-10-31T07:16:41.838Z,0.77
2023-10-31T07:18:15.385Z,0.70
2023-10-31T07:19:48.539Z,0.60
2023-10-31T07:21:20.673Z,0.60
2023-10-31T07:22:53.836Z,0.50
2023-10-31T07:24:27.836Z,0.40
2023-10-31T07:26:00.945Z,0.60
2023-10-31T07:27:33.137Z,0.53
2023-10-31T07:29:06.432Z,0.80
2023-10-31T07:30:38.650Z,0.53
2023-10-31T07:32:12.064Z,0.63
2023-10-31T07:33:46.643Z,0.70
2023-10-31T07:35:20.871Z,0.50
2023-10-31T07:36:53.333Z,0.53
2023-10-31T07:38:26.433Z,0.43
2023-10-31T07:39:58.591Z,0.50
2023-10-31T07:41:31.991Z,0.50
2023-10-31T07:43:04.154Z,0.53
2023-10-31T07:44:37.553Z,0.50
2023-10-31T07:46:09.748Z,0.50
2023-10-31T07:47:42.945Z,0.60
2023-10-31T07:49:16.568Z,0.50
2023-10-31T07:50:49.861Z,0.47
2023-10-31T07:52:21.999Z,0.80
2023-10-31T07:53:55.160Z,0.50
2023-10-31T07:55:28.439Z,0.60
2023-10-31T07:57:00.534Z,0.40
2023-10-31T07:58:33.693Z,0.50
2023-10-31T08:00:12.187Z,0.50
2023-10-31T08:01:47.135Z,0.50
2023-10-31T08:03:20.422Z,0.50
2023-10-31T08:04:53.979Z,0.50
2023-10-31T08:06:27.349Z,0.60
2023-10-31T08:07:59.740Z,0.70
2023-10-31T08:09:32.899Z,0.50
2023-10-31T08:11:08.226Z,0.40
2023-10-31T08:12:41.447Z,0.40
2023-10-31T08:14:13.699Z,0.60
2023-10-31T08:15:46.868Z,0.50
2023-10-31T08:17:19.053Z,0.60
2023-10-31T08:18:52.284Z,0.50
2023-10-31T08:20:25.897Z,0.50
2023-10-31T08:21:59.654Z,0.50
2023-10-31T08:23:32.096Z,0.40
2023-10-31T08:25:05.811Z,0.50
2023-10-31T08:26:37.971Z,0.47
2023-10-31T08:28:11.190Z,0.43
2023-10-31T08:29:43.337Z,0.60
2023-10-31T08:31:16.455Z,0.53
2023-10-31T08:32:48.623Z,0.50
2023-10-31T08:34:21.806Z,0.33
2023-10-31T08:35:55.308Z,0.47
2023-10-31T08:37:28.424Z,0.50
2023-10-31T08:39:00.616Z,0.40
2023-10-31T08:40:33.995Z,0.40
2023-10-31T08:42:06.907Z,0.53
2023-10-31T08:43:40.273Z,0.43
2023-10-31T08:45:12.627Z,0.40
2023-10-31T08:46:45.757Z,0.43
2023-10-31T08:48:17.913Z,0.37
2023-10-31T08:49:51.080Z,0.40
2023-10-31T08:51:24.748Z,0.40
2023-10-31T08:52:58.807Z,0.47
2023-10-31T08:54:32.037Z,0.40
2023-10-31T08:56:05.747Z,0.30
2023-10-31T08:57:39.443Z,0.40
2023-10-31T08:59:11.672Z,0.50
2023-10-31T09:00:44.970Z,0.40
2023-10-31T09:02:17.317Z,0.40
2023-10-31T09:03:50.622Z,0.50
2023-10-31T09:05:22.741Z,0.40
2023-10-31T09:07:00.098Z,0.40
2023-10-31T09:08:33.277Z,0.50
2023-10-31T09:10:07.378Z,0.50
2023-10-31T09:11:39.497Z,0.40
2023-10-31T09:13:12.663Z,0.50
2023-10-31T09:14:44.825Z,0.50
2023-10-31T09:16:18.000Z,0.50
2023-10-31T09:17:51.337Z,0.50
2023-10-31T09:19:24.677Z,0.50
2023-10-31T09:20:56.872Z,0.43
2023-10-31T09:22:31.434Z,0.40
2023-10-31T09:24:04.187Z,0.50
2023-10-31T09:25:37.671Z,0.50
2023-10-31T09:27:10.702Z,0.50
2023-10-31T09:28:50.784Z,0.50
2023-10-31T09:30:23.063Z,0.47
2023-10-31T09:31:56.222Z,0.47
2023-10-31T09:33:29.462Z,0.50
2023-10-31T09:35:03.154Z,0.50
2023-10-31T09:36:35.730Z,0.60
2023-10-31T09:38:10.294Z,0.43
2023-10-31T09:39:42.988Z,0.30
2023-10-31T09:41:16.244Z,0.30
2023-10-31T09:42:49.437Z,0.50
2023-10-31T09:44:22.869Z,0.50
2023-10-31T09:45:56.644Z,0.60
2023-10-31T09:47:30.936Z,0.50
2023-10-31T09:49:05.056Z,0.80
2023-10-31T09:50:37.921Z,0.60
2023-10-31T09:52:12.116Z,0.37
2023-10-31T09:53:46.195Z,0.30
2023-10-31T09:55:19.413Z,0.53
2023-10-31T09:56:51.631Z,0.47
2023-10-31T09:58:24.799Z,0.43
2023-10-31T09:59:56.942Z,0.40
2023-10-31T10:01:30.541Z,0.33
2023-10-31T10:03:03.156Z,0.30
2023-10-31T10:04:37.103Z,0.33
2023-10-31T10:06:10.852Z,0.30
2023-10-31T10:07:45.671Z,0.33
2023-10-31T10:09:19.203Z,0.40
2023-10-31T10:10:53.694Z,0.30
2023-10-31T10:12:25.829Z,0.40
2023-10-31T10:14:00.214Z,0.40
2023-10-31T10:15:44.712Z,0.50
2023-10-31T10:17:21.038Z,0.40
2023-10-31T10:18:53.222Z,0.40
2023-10-31T10:20:26.385Z,0.40
2023-10-31T10:22:00.090Z,0.40
2023-10-31T10:23:36.616Z,0.20
2023-10-31T10:25:12.870Z,0.40
2023-10-31T10:26:46.065Z,0.40
2023-10-31T10:28:19.935Z,0.47
2023-10-31T10:29:54.778Z,0.40
2023-10-31T10:31:27.910Z,0.50
2023-10-31T10:33:00.045Z,0.43
2023-10-31T10:34:33.668Z,0.30
2023-10-31T10:36:06.863Z,0.50
2023-10-31T10:37:41.103Z,0.77
2023-10-31T10:39:13.436Z,0.37
2023-10-31T10:40:49.597Z,0.53
2023-10-31T10:42:32.481Z,0.47
2023-10-31T10:44:07.603Z,0.50
2023-10-31T10:45:44.068Z,0.40
2023-10-31T10:47:18.380Z,0.40
2023-10-31T10:48:54.490Z,0.40
2023-10-31T10:50:32.908Z,0.50
2023-10-31T10:52:16.647Z,0.60
2023-10-31T10:53:53.296Z,0.47
2023-10-31T10:55:27.443Z,0.50
2023-10-31T10:57:11.284Z,0.40
2023-10-31T10:58:53.679Z,0.53
2023-10-31T11:00:27.877Z,0.40
2023-10-31T11:02:01.670Z,0.60
2023-10-31T11:03:36.452Z,0.50
2023-10-31T11:05:09.700Z,0.40
2023-10-31T11:06:43.855Z,0.70
2023-10-31T11:08:18.184Z,0.40
2023-10-31T11:09:50.903Z,0.50
2023-10-31T11:11:25.266Z,0.40
2023-10-31T11:12:58.951Z,0.50
2023-10-31T11:14:33.610Z,0.50
2023-10-31T11:16:12.529Z,0.50
2023-10-31T11:17:47.645Z,0.50
2023-10-31T11:19:20.468Z,0.50
2023-10-31T11:20:53.823Z,0.50
2023-10-31T11:22:25.957Z,0.43
2023-10-31T11:24:00.490Z,0.60
2023-10-31T11:25:33.835Z,0.50
2023-10-31T11:27:08.797Z,0.40
2023-10-31T11:28:42.341Z,0.40
2023-10-31T11:30:24.022Z,0.60
2023-10-31T11:31:58.133Z,0.40
2023-10-31T11:33:31.913Z,0.50
2023-10-31T11:35:04.478Z,0.30
2023-10-31T11:36:38.433Z,0.40
2023-10-31T11:38:12.680Z,0.43
2023-10-31T11:40:22.231Z,0.37
2023-10-31T11:41:58.917Z,0.50
2023-10-31T11:43:54.573Z,0.60
2023-10-31T11:45:29.718Z,0.53
2023-10-31T11:47:03.998Z,0.43
2023-10-31T11:48:52.260Z,0.50
2023-10-31T11:50:25.701Z,0.50
2023-10-31T11:51:58.957Z,0.50
2023-10-31T11:53:31.458Z,0.60
2023-10-31T11:55:05.717Z,0.70
2023-10-31T11:56:38.856Z,0.60
2023-10-31T11:58:19.157Z,0.60
2023-10-31T11:59:53.657Z,0.50
2023-10-31T12:01:26.035Z,0.60
2023-10-31T12:03:00.591Z,0.70
2023-10-31T12:04:32.881Z,0.97
2023-10-31T12:06:06.984Z,0.57
2023-10-31T12:07:43.727Z,0.50
2023-10-31T12:09:16.889Z,0.47
2023-10-31T12:10:49.041Z,0.50
2023-10-31T12:12:33.673Z,0.50
2023-10-31T12:14:07.636Z,0.60
2023-10-31T12:15:52.886Z,0.50
2023-10-31T12:17:29.201Z,0.40
2023-10-31T12:19:02.867Z,0.50
2023-10-31T12:20:49.113Z,0.40
2023-10-31T12:22:22.417Z,0.60
2023-10-31T12:24:05.053Z,0.50
2023-10-31T12:25:48.211Z,0.60
2023-10-31T12:27:20.379Z,0.60
2023-10-31T12:29:09.356Z,0.40
2023-10-31T12:30:48.701Z,0.50
2023-10-31T12:32:20.925Z,0.63
2023-10-31T12:33:55.008Z,0.53
2023-10-31T12:35:27.879Z,0.50
2023-10-31T12:37:04.552Z,0.50
2023-10-31T12:38:37.107Z,0.30
2023-10-31T12:40:11.613Z,0.50
2023-10-31T12:41:45.887Z,0.40
2023-10-31T12:43:19.070Z,0.40
2023-10-31T12:44:52.263Z,0.40
2023-10-31T12:46:30.479Z,0.50
2023-10-31T12:48:05.271Z,0.30
2023-10-31T12:49:37.510Z,0.40
2023-10-31T12:51:10.750Z,0.40
2023-10-31T12:52:50.646Z,0.60
2023-10-31T12:54:30.198Z,0.50
2023-10-31T12:56:04.055Z,0.30
2023-10-31T12:57:37.595Z,0.37
2023-10-31T12:59:13.029Z,0.60
2023-10-31T13:00:47.366Z,0.53
2023-10-31T13:02:22.582Z,0.40
2023-10-31T13:03:56.115Z,0.50
2023-10-31T13:05:29.439Z,0.57
2023-10-31T13:07:04.768Z,0.50
2023-10-31T13:08:36.984Z,0.60
2023-10-31T13:10:11.704Z,0.60
2023-10-31T13:11:43.807Z,0.50
2023-10-31T13:13:17.083Z,0.50
2023-10-31T13:14:49.390Z,0.70
2023-10-31T13:16:22.589Z,0.70
2023-10-31T13:17:58.300Z,0.50
2023-10-31T13:19:30.487Z,0.43
2023-10-31T13:21:03.650Z,0.40
2023-10-31T13:22:36.560Z,0.47
2023-10-31T13:24:10.451Z,0.50
2023-10-31T13:25:43.809Z,0.40
2023-10-31T13:27:20.368Z,0.50
2023-10-31T13:28:53.758Z,0.60
2023-10-31T13:30:27.008Z,0.50
2023-10-31T13:31:59.247Z,0.53
2023-10-31T13:33:33.882Z,0.50
2023-10-31T13:35:07.873Z,0.43
2023-10-31T13:36:41.219Z,0.70
2023-10-31T13:38:13.476Z,0.60
2023-10-31T13:39:47.042Z,0.60
2023-10-31T13:41:19.412Z,0.57
2023-10-31T13:42:52.892Z,0.50
2023-10-31T13:44:25.191Z,0.40
2023-10-31T13:45:58.516Z,0.57
2023-10-31T13:47:31.480Z,0.60
2023-10-31T13:49:08.268Z,0.50
2023-10-31T13:50:40.502Z,0.60
2023-10-31T13:52:13.838Z,0.60
2023-10-31T13:53:45.963Z,0.63
2023-10-31T13:55:19.093Z,0.70
2023-10-31T13:56:51.265Z,0.60
2023-10-31T13:58:24.705Z,0.70
2023-10-31T13:59:58.043Z,0.50
2023-10-31T14:01:30.971Z,0.50
2023-10-31T14:03:04.326Z,0.70
2023-10-31T14:04:39.130Z,0.50
2023-10-31T14:06:11.491Z,0.80
2023-10-31T14:07:45.631Z,0.80
2023-10-31T14:09:17.907Z,0.70
2023-10-31T14:10:51.031Z,0.80
2023-10-31T14:12:23.639Z,0.57
2023-10-31T14:13:57.709Z,0.90
2023-10-31T14:15:30.857Z,0.70
2023-10-31T14:17:03.146Z,0.80
2023-10-31T14:18:36.272Z,0.77
2023-10-31T14:20:11.049Z,0.77
2023-10-31T14:21:44.821Z,1.60
2023-10-31T14:23:17.007Z,1.20
2023-10-31T14:24:50.364Z,4.73
2023-10-31T14:26:23.596Z,7.97
2023-10-31T14:27:57.075Z,4.23
2023-10-31T14:29:29.233Z,2.97
2023-10-31T14:31:02.393Z,1.90
2023-10-31T14:32:35.831Z,1.63
2023-10-31T14:34:08.087Z,1.33
2023-10-31T14:35:42.851Z,1.40
2023-10-31T14:37:15.238Z,1.40
2023-10-31T14:38:48.402Z,1.37
2023-10-31T14:40:20.690Z,1.40
2023-10-31T14:41:53.811Z,1.53
2023-10-31T14:43:26.028Z,1.30
2023-10-31T14:44:59.203Z,0.90
2023-10-31T14:46:33.414Z,1.10
2023-10-31T14:48:05.980Z,1.00
2023-10-31T14:49:39.163Z,0.70
2023-10-31T14:51:13.033Z,0.80
2023-10-31T14:52:46.121Z,1.03
2023-10-31T14:54:18.387Z,1.13
2023-10-31T14:55:51.538Z,0.80
2023-10-31T14:57:24.853Z,0.87
2023-10-31T14:58:57.798Z,0.80
2023-10-31T15:00:31.371Z,0.70
2023-10-31T15:02:04.382Z,0.73
2023-10-31T15:03:37.614Z,0.90
2023-10-31T15:05:10.089Z,0.83
2023-10-31T15:06:45.297Z,0.80
2023-10-31T15:08:17.992Z,0.90
2023-10-31T15:09:51.142Z,1.00
2023-10-31T15:11:24.453Z,0.70
2023-10-31T15:12:56.878Z,0.93
2023-10-31T15:14:30.369Z,0.90
2023-10-31T15:16:02.539Z,0.97
2023-10-31T15:17:36.296Z,0.60
2023-10-31T15:19:08.476Z,0.80
2023-10-31T15:20:41.656Z,0.70
2023-10-31T15:22:15.233Z,0.73
2023-10-31T15:23:48.391Z,0.60
2023-10-31T15:25:20.649Z,0.80
2023-10-31T15:26:53.764Z,0.90
2023-10-31T15:28:26.296Z,0.60
2023-10-31T15:29:59.917Z,0.70
2023-10-31T15:31:33.562Z,0.70
2023-10-31T15:33:06.730Z,1.00
2023-10-31T15:34:42.006Z,0.80
2023-10-31T15:36:15.500Z,0.90
2023-10-31T15:37:49.975Z,0.80
2023-10-31T15:39:23.897Z,1.10
2023-10-31T15:41:00.974Z,1.17
2023-10-31T15:42:40.407Z,0.90
2023-10-31T15:44:12.985Z,0.90
2023-10-31T15:45:46.776Z,0.87
2023-10-31T15:47:19.201Z,0.80
2023-10-31T15:48:52.314Z,0.97
2023-10-31T15:50:24.478Z,0.70
2023-10-31T15:51:57.818Z,0.87
2023-10-31T15:53:33.036Z,0.90
2023-10-31T15:55:07.064Z,0.90
2023-10-31T15:56:39.173Z,1.00
2023-10-31T15:58:12.647Z,1.07
2023-10-31T15:59:44.906Z,1.10
2023-10-31T16:01:18.119Z,0.90
2023-10-31T16:02:52.343Z,1.00
2023-10-31T16:04:24.964Z,1.00
2023-10-31T16:05:58.398Z,1.00
2023-10-31T16:07:30.521Z,1.00
2023-10-31T16:09:05.438Z,1.10
2023-10-31T16:10:37.609Z,0.97
2023-10-31T16:12:11.518Z,1.30
2023-10-31T16:13:45.346Z,1.10
2023-10-31T16:15:18.833Z,1.07
2023-10-31T16:16:50.973Z,1.23
2023-10-31T16:18:24.115Z,1.10
2023-10-31T16:19:57.003Z,1.30
2023-10-31T16:21:30.127Z,1.00
2023-10-31T16:23:02.332Z,1.10
2023-10-31T16:24:36.960Z,1.07
2023-10-31T16:26:09.157Z,1.23
2023-10-31T16:27:42.308Z,0.90
2023-10-31T16:29:16.303Z,1.00
2023-10-31T16:30:49.900Z,1.20
2023-10-31T16:32:23.138Z,1.27
2023-10-31T16:33:55.345Z,0.90
2023-10-31T16:35:28.488Z,1.40
2023-10-31T16:37:00.662Z,1.03
2023-10-31T16:38:33.958Z,0.97
2023-10-31T16:40:09.584Z,1.00
2023-10-31T16:41:42.839Z,1.10
2023-10-31T16:43:15.126Z,1.00
2023-10-31T16:44:48.230Z,1.17
2023-10-31T16:46:21.401Z,1.40
2023-10-31T16:47:53.724Z,1.40
2023-10-31T16:49:26.962Z,1.30
2023-10-31T16:50:59.074Z,1.57
2023-10-31T16:52:32.620Z,1.43
2023-10-31T16:54:04.748Z,1.17
2023-10-31T16:55:39.256Z,1.17
2023-10-31T16:57:11.467Z,1.07
2023-10-31T16:58:47.135Z,1.27
2023-10-31T17:00:19.762Z,1.23
2023-10-31T17:01:52.932Z,1.30
2023-10-31T17:03:26.195Z,1.40
2023-10-31T17:04:59.347Z,1.87
2023-10-31T17:06:31.543Z,1.30
2023-10-31T17:08:05.488Z,1.10
2023-10-31T17:09:38.676Z,1.50
2023-10-31T17:11:12.189Z,1.40
2023-10-31T17:12:45.294Z,1.60
2023-10-31T17:14:18.399Z,1.90
2023-10-31T17:15:51.631Z,1.77
2023-10-31T17:17:26.249Z,1.30
2023-10-31T17:18:58.523Z,1.40
2023-10-31T17:20:31.653Z,1.30
2023-10-31T17:22:04.992Z,1.20
2023-10-31T17:23:38.187Z,1.00
2023-10-31T17:25:10.453Z,1.00
2023-10-31T17:26:44.964Z,1.00
2023-10-31T17:28:17.513Z,1.10
2023-10-31T17:29:50.918Z,1.00
2023-10-31T17:31:24.109Z,1.03
2023-10-31T17:32:56.552Z,1.00
2023-10-31T17:34:29.713Z,1.27
2023-10-31T17:36:01.897Z,1.40
2023-10-31T17:37:35.348Z,0.90
2023-10-31T17:39:07.521Z,1.20
2023-10-31T17:40:40.688Z,1.27
2023-10-31T17:42:14.207Z,1.23
2023-10-31T17:43:47.467Z,1.30
2023-10-31T17:45:23.377Z,1.10
2023-10-31T17:46:56.550Z,1.20
2023-10-31T17:48:29.729Z,1.60
2023-10-31T17:50:01.884Z,1.43
2023-10-31T17:51:41.806Z,1.10
2023-10-31T17:53:15.544Z,1.20
2023-10-31T17:54:48.032Z,1.30
2023-10-31T17:56:21.304Z,1.10
2023-10-31T17:57:54.870Z,1.17
2023-10-31T17:59:29.242Z,1.27
2023-10-31T18:01:01.440Z,1.13
2023-10-31T18:02:35.226Z,1.80
2023-10-31T18:04:07.502Z,1.40
2023-10-31T18:05:40.693Z,1.27
2023-10-31T18:07:12.878Z,1.50
2023-10-31T18:08:46.847Z,1.20
2023-10-31T18:10:19.200Z,1.40
2023-10-31T18:11:52.348Z,1.60
2023-10-31T18:13:25.884Z,1.33
2023-10-31T18:14:59.568Z,1.17
2023-10-31T18:16:31.725Z,1.20
2023-10-31T18:18:05.074Z,1.20
2023-10-31T18:19:37.267Z,1.40
2023-10-31T18:21:12.612Z,1.33
2023-10-31T18:22:47.004Z,1.30
2023-10-31T18:24:19.168Z,1.20
2023-10-31T18:25:53.133Z,1.40
2023-10-31T18:27:25.493Z,1.60
2023-10-31T18:28:59.987Z,1.33
2023-10-31T18:30:33.122Z,1.37
2023-10-31T18:32:06.714Z,1.30
2023-10-31T18:33:40.238Z,1.20
2023-10-31T18:35:13.424Z,1.13
2023-10-31T18:36:45.604Z,1.40
2023-10-31T18:38:18.690Z,1.40
2023-10-31T18:39:51.355Z,1.30
2023-10-31T18:41:24.717Z,1.50
2023-10-31T18:42:57.871Z,1.20
2023-10-31T18:44:39.844Z,1.30
2023-10-31T18:46:19.677Z,1.53
2023-10-31T18:47:52.913Z,1.30
2023-10-31T18:49:25.056Z,1.40
2023-10-31T18:50:58.793Z,1.40
2023-10-31T18:52:31.421Z,1.20
2023-10-31T18:54:06.361Z,1.10
2023-10-31T18:55:38.622Z,1.20
2023-10-31T18:57:11.775Z,1.37
2023-10-31T18:58:45.973Z,1.20
2023-10-31T19:00:23.901Z,1.20
2023-10-31T19:01:59.615Z,1.30
2023-10-31T19:03:32.909Z,1.73
2023-10-31T19:05:05.594Z,1.40
2023-10-31T19:06:38.707Z,1.23
2023-10-31T19:08:12.804Z,1.50
2023-10-31T19:09:45.233Z,1.40
2023-10-31T19:11:19.075Z,1.30
2023-10-31T19:12:52.324Z,1.30
2023-10-31T19:14:24.792Z,1.37
2023-10-31T19:15:59.498Z,1.40
2023-10-31T19:17:31.802Z,1.77
2023-10-31T19:19:05.032Z,1.30
2023-10-31T19:20:37.168Z,1.53
2023-10-31T19:22:10.485Z,1.37
2023-10-31T19:23:42.742Z,1.23
2023-10-31T19:25:15.957Z,1.37
2023-10-31T19:26:48.096Z,1.20
2023-10-31T19:28:22.163Z,1.40
2023-10-31T19:29:54.321Z,1.20
2023-10-31T19:31:28.812Z,1.20
2023-10-31T19:33:01.147Z,1.10
2023-10-31T19:34:35.122Z,1.27
2023-10-31T19:36:08.449Z,1.10
2023-10-31T19:37:45.309Z,1.37
2023-10-31T19:39:17.891Z,1.20
2023-10-31T19:40:51.414Z,1.13
2023-10-31T19:42:23.562Z,1.47
2023-10-31T19:43:56.679Z,1.37
2023-10-31T19:45:28.959Z,1.43
2023-10-31T19:47:03.525Z,1.20
2023-10-31T19:48:36.820Z,1.30
2023-10-31T19:50:10.664Z,1.40
2023-10-31T19:51:43.365Z,1.40
2023-10-31T19:53:16.612Z,1.30
2023-10-31T19:54:48.797Z,1.30
2023-10-31T19:56:23.030Z,1.40
2023-10-31T19:57:55.205Z,1.50
2023-10-31T19:59:29.105Z,1.57
2023-10-31T20:01:01.264Z,1.50
2023-10-31T20:02:35.889Z,1.37
2023-10-31T20:04:09.287Z,1.37
2023-10-31T20:05:42.703Z,1.50
2023-10-31T20:07:15.136Z,1.60
2023-10-31T20:08:48.491Z,1.40
2023-10-31T20:10:21.885Z,1.43
2023-10-31T20:11:56.413Z,1.30
2023-10-31T20:13:28.822Z,1.20
2023-10-31T20:15:02.659Z,1.30
2023-10-31T20:16:35.399Z,1.33
2023-10-31T20:18:09.991Z,1.27
2023-10-31T20:19:42.189Z,1.40
2023-10-31T20:21:15.306Z,1.13
2023-10-31T20:22:48.467Z,1.20
2023-10-31T20:24:20.704Z,1.13
2023-10-31T20:25:54.121Z,1.33
2023-10-31T20:27:26.329Z,1.13
2023-10-31T20:28:59.517Z,1.30
2023-10-31T20:30:32.822Z,0.97
2023-10-31T20:32:06.544Z,1.10
2023-10-31T20:33:42.052Z,1.40
2023-10-31T20:35:14.334Z,1.23
2023-10-31T20:36:47.490Z,1.20
2023-10-31T20:38:20.534Z,1.20
2023-10-31T20:39:53.678Z,1.60
2023-10-31T20:41:25.806Z,1.07